sensor_id;sensor_type;location;lat;lon;timestamp;pressure;altitude;pressure_sealevel;temperature;humidity
57562;BME280;43397;51.530;5.974;2023-05-10T00:02:10;74225.53;;;-145.90;40.71
57562;BME280;43397;51.530;5.974;2023-05-10T00:04:37;74235.66;;;-145.90;40.98
57562;BME280;43397;51.530;5.974;2023-05-10T00:07:02;74207.31;;;-145.90;40.73
57562;BME280;43397;51.530;5.974;2023-05-10T00:09:28;74132.34;;;-145.90;40.22
57562;BME280;43397;51.530;5.974;2023-05-10T00:11:54;74288.34;;;-145.90;42.06
57562;BME280;43397;51.530;5.974;2023-05-10T00:14:19;74286.31;;;-145.90;41.73
57562;BME280;43397;51.530;5.974;2023-05-10T00:16:45;74221.47;;;-145.90;41.34
57562;BME280;43397;51.530;5.974;2023-05-10T00:19:11;74355.19;;;-145.90;42.70
57562;BME280;43397;51.530;5.974;2023-05-10T00:21:38;74399.78;;;-145.90;44.03
57562;BME280;43397;51.530;5.974;2023-05-10T00:24:04;74316.69;;;-145.90;42.74
57562;BME280;43397;51.530;5.974;2023-05-10T00:26:30;74339.00;;;-145.90;42.91
57562;BME280;43397;51.530;5.974;2023-05-10T00:28:55;74233.63;;;-145.90;41.91
57562;BME280;43397;51.530;5.974;2023-05-10T00:31:21;74405.84;;;-145.90;43.92
57562;BME280;43397;51.530;5.974;2023-05-10T00:33:47;74385.59;;;-145.90;44.41
57562;BME280;43397;51.530;5.974;2023-05-10T00:36:12;74409.91;;;-145.90;44.57
57562;BME280;43397;51.530;5.974;2023-05-10T00:38:39;74462.59;;;-145.90;45.36
57562;BME280;43397;51.530;5.974;2023-05-10T00:41:05;74369.38;;;-145.90;44.06
57562;BME280;43397;51.530;5.974;2023-05-10T00:43:31;74290.38;;;-145.90;42.62
57562;BME280;43397;51.530;5.974;2023-05-10T00:45:56;74383.56;;;-145.90;44.30
57562;BME280;43397;51.530;5.974;2023-05-10T00:48:23;74219.47;;;-145.90;41.75
57562;BME280;43397;51.530;5.974;2023-05-10T00:50:48;74183.00;;;-145.90;40.81
57562;BME280;43397;51.530;5.974;2023-05-10T00:53:15;74288.34;;;-145.90;42.34
57562;BME280;43397;51.530;5.974;2023-05-10T00:55:42;74178.94;;;-145.90;40.44
57562;BME280;43397;51.530;5.974;2023-05-10T00:58:08;74158.69;;;-145.90;40.11
57562;BME280;43397;51.530;5.974;2023-05-10T01:00:34;74314.69;;;-145.90;42.35
57562;BME280;43397;51.530;5.974;2023-05-10T01:03:00;74270.09;;;-145.90;41.75
57562;BME280;43397;51.530;5.974;2023-05-10T01:05:26;74259.97;;;-145.90;41.59
57562;BME280;43397;51.530;5.974;2023-05-10T01:07:52;74249.84;;;-145.90;41.45
57562;BME280;43397;51.530;5.974;2023-05-10T01:10:18;74187.03;;;-145.90;40.52
57562;BME280;43397;51.530;5.974;2023-05-10T01:12:46;74087.78;;;-145.90;38.96
57562;BME280;43397;51.530;5.974;2023-05-10T01:15:13;74399.78;;;-145.90;43.65
57562;BME280;43397;51.530;5.974;2023-05-10T01:17:42;74270.09;;;-145.90;41.75
57562;BME280;43397;51.530;5.974;2023-05-10T01:20:10;74205.28;;;-145.90;40.92
57562;BME280;43397;51.530;5.974;2023-05-10T01:22:51;74282.25;;;-145.90;41.69
57562;BME280;43397;51.530;5.974;2023-05-10T01:25:34;74357.22;;;-145.90;42.85
57562;BME280;43397;51.530;5.974;2023-05-10T01:28:19;74255.94;;;-145.90;41.40
57562;BME280;43397;51.530;5.974;2023-05-10T01:31:08;74221.47;;;-145.90;40.42
57562;BME280;43397;51.530;5.974;2023-05-10T01:33:47;74310.63;;;-145.90;42.10
57562;BME280;43397;51.530;5.974;2023-05-10T01:36:21;74187.03;;;-145.90;40.41
57562;BME280;43397;51.530;5.974;2023-05-10T01:38:50;74266.06;;;-145.90;41.15
57562;BME280;43397;51.530;5.974;2023-05-10T01:41:18;74247.81;;;-145.90;41.01
57562;BME280;43397;51.530;5.974;2023-05-10T01:43:50;74249.84;;;-145.90;40.88
57562;BME280;43397;51.530;5.974;2023-05-10T01:46:26;74150.56;;;-145.90;39.69
57562;BME280;43397;51.530;5.974;2023-05-10T01:48:55;74091.81;;;-145.90;38.88
57562;BME280;43397;51.530;5.974;2023-05-10T01:51:24;74103.97;;;-145.90;38.74
57562;BME280;43397;51.530;5.974;2023-05-10T01:54:02;74211.34;;;-145.90;39.71
57562;BME280;43397;51.530;5.974;2023-05-10T01:56:30;74197.16;;;-145.90;40.00
57562;BME280;43397;51.530;5.974;2023-05-10T01:58:58;74255.94;;;-145.90;40.90
57562;BME280;43397;51.530;5.974;2023-05-10T02:01:26;74207.31;;;-145.90;40.22
57562;BME280;43397;51.530;5.974;2023-05-10T02:03:55;74276.19;;;-145.90;41.20
57562;BME280;43397;51.530;5.974;2023-05-10T02:06:22;74363.31;;;-145.90;42.64
57562;BME280;43397;51.530;5.974;2023-05-10T02:08:49;74415.97;;;-145.90;43.81
57562;BME280;43397;51.530;5.974;2023-05-10T02:11:17;74351.16;;;-145.90;42.97
57562;BME280;43397;51.530;5.974;2023-05-10T02:13:44;74367.34;;;-145.90;43.08
57562;BME280;43397;51.530;5.974;2023-05-10T02:16:12;74280.25;;;-145.90;42.24
57562;BME280;43397;51.530;5.974;2023-05-10T02:18:40;74399.78;;;-145.90;43.73
57562;BME280;43397;51.530;5.974;2023-05-10T02:21:08;74328.84;;;-145.90;43.01
57562;BME280;43397;51.530;5.974;2023-05-10T02:23:36;74298.47;;;-145.90;42.73
57562;BME280;43397;51.530;5.974;2023-05-10T02:26:03;74235.66;;;-145.90;41.24
57562;BME280;43397;51.530;5.974;2023-05-10T02:28:32;74219.47;;;-145.90;41.35
57562;BME280;43397;51.530;5.974;2023-05-10T02:30:58;74203.25;;;-145.90;40.93
57562;BME280;43397;51.530;5.974;2023-05-10T02:33:25;74237.69;;;-145.90;41.31
57562;BME280;43397;51.530;5.974;2023-05-10T02:35:52;74282.25;;;-145.90;42.02
57562;BME280;43397;51.530;5.974;2023-05-10T02:38:20;74253.91;;;-145.90;41.78
57562;BME280;43397;51.530;5.974;2023-05-10T02:40:46;74209.31;;;-145.90;41.17
57562;BME280;43397;51.530;5.974;2023-05-10T02:43:14;74215.41;;;-145.90;41.01
57562;BME280;43397;51.530;5.974;2023-05-10T02:45:41;74207.31;;;-145.90;41.24
57562;BME280;43397;51.530;5.974;2023-05-10T02:48:08;74320.75;;;-145.90;42.74
57562;BME280;43397;51.530;5.974;2023-05-10T02:50:35;74233.63;;;-145.90;41.25
57562;BME280;43397;51.530;5.974;2023-05-10T02:53:08;74213.38;;;-145.90;40.76
57562;BME280;43397;51.530;5.974;2023-05-10T02:55:38;74310.63;;;-145.90;42.34
57562;BME280;43397;51.530;5.974;2023-05-10T02:58:04;74300.50;;;-145.90;42.24
57562;BME280;43397;51.530;5.974;2023-05-10T03:00:30;74355.19;;;-145.90;43.37
57562;BME280;43397;51.530;5.974;2023-05-10T03:02:57;74452.44;;;-145.90;44.84
57562;BME280;43397;51.530;5.974;2023-05-10T03:05:22;74332.91;;;-145.90;43.28
57562;BME280;43397;51.530;5.974;2023-05-10T03:07:48;74278.22;;;-145.90;42.28
57562;BME280;43397;51.530;5.974;2023-05-10T03:10:14;74274.16;;;-145.90;42.16
57562;BME280;43397;51.530;5.974;2023-05-10T03:12:52;74332.91;;;-145.90;42.87
57562;BME280;43397;51.530;5.974;2023-05-10T03:15:27;74501.06;;;-145.90;45.48
57562;BME280;43397;51.530;5.974;2023-05-10T03:18:01;74422.06;;;-145.90;44.75
57562;BME280;43397;51.530;5.974;2023-05-10T03:20:32;74363.31;;;-145.90;43.58
57562;BME280;43397;51.530;5.974;2023-05-10T03:23:04;74399.78;;;-145.90;44.25
57562;BME280;43397;51.530;5.974;2023-05-10T03:25:31;74555.78;;;-145.90;46.91
57562;BME280;43397;51.530;5.974;2023-05-10T03:28:01;74383.56;;;-145.90;43.98
57562;BME280;43397;51.530;5.974;2023-05-10T03:30:27;74345.06;;;-145.90;43.35
57562;BME280;43397;51.530;5.974;2023-05-10T03:32:53;74375.47;;;-145.90;43.52
57562;BME280;43397;51.530;5.974;2023-05-10T03:35:19;74442.31;;;-145.90;44.51
57562;BME280;43397;51.530;5.974;2023-05-10T03:37:45;74468.66;;;-145.90;44.99
57562;BME280;43397;51.530;5.974;2023-05-10T03:40:11;74418.00;;;-145.90;43.81
57562;BME280;43397;51.530;5.974;2023-05-10T03:42:36;74241.75;;;-145.90;41.39
57562;BME280;43397;51.530;5.974;2023-05-10T03:45:04;74223.50;;;-145.90;40.60
57562;BME280;43397;51.530;5.974;2023-05-10T03:47:30;74345.06;;;-145.90;42.42
57562;BME280;43397;51.530;5.974;2023-05-10T03:49:56;74367.34;;;-145.90;42.97
57562;BME280;43397;51.530;5.974;2023-05-10T03:52:21;74310.63;;;-145.90;42.23
57562;BME280;43397;51.530;5.974;2023-05-10T03:54:47;74306.56;;;-145.90;42.25
57562;BME280;43397;51.530;5.974;2023-05-10T03:57:13;74359.25;;;-145.90;42.74
57562;BME280;43397;51.530;5.974;2023-05-10T03:59:38;74391.66;;;-145.90;43.25
57562;BME280;43397;51.530;5.974;2023-05-10T04:02:05;74351.16;;;-145.90;42.53
57562;BME280;43397;51.530;5.974;2023-05-10T04:04:31;74395.72;;;-145.90;43.31
57562;BME280;43397;51.530;5.974;2023-05-10T04:06:56;74332.91;;;-145.90;42.54
57562;BME280;43397;51.530;5.974;2023-05-10T04:09:22;74369.38;;;-145.90;42.57
57562;BME280;43397;51.530;5.974;2023-05-10T04:11:48;74369.38;;;-145.90;42.69
57562;BME280;43397;51.530;5.974;2023-05-10T04:14:13;74361.28;;;-145.90;42.64
57562;BME280;43397;51.530;5.974;2023-05-10T04:16:39;74385.59;;;-145.90;43.00
57562;BME280;43397;51.530;5.974;2023-05-10T04:19:06;74403.81;;;-145.90;43.21
57562;BME280;43397;51.530;5.974;2023-05-10T04:21:32;74403.81;;;-145.90;43.69
57562;BME280;43397;51.530;5.974;2023-05-10T04:23:57;74314.69;;;-145.90;42.18
57562;BME280;43397;51.530;5.974;2023-05-10T04:26:23;74369.38;;;-145.90;42.67
57562;BME280;43397;51.530;5.974;2023-05-10T04:28:49;74369.38;;;-145.90;42.55
57562;BME280;43397;51.530;5.974;2023-05-10T04:31:14;74391.66;;;-145.90;43.16
57562;BME280;43397;51.530;5.974;2023-05-10T04:33:40;74272.13;;;-145.90;41.09
57562;BME280;43397;51.530;5.974;2023-05-10T04:36:07;74460.56;;;-145.90;44.02
57562;BME280;43397;51.530;5.974;2023-05-10T04:38:33;74430.16;;;-145.90;43.47
57562;BME280;43397;51.530;5.974;2023-05-10T04:41:05;74379.50;;;-145.90;42.79
57562;BME280;43397;51.530;5.974;2023-05-10T04:43:31;74349.13;;;-145.90;42.32
57562;BME280;43397;51.530;5.974;2023-05-10T04:45:57;74432.19;;;-145.90;43.40
57562;BME280;43397;51.530;5.974;2023-05-10T04:48:22;74422.06;;;-145.90;43.23
57562;BME280;43397;51.530;5.974;2023-05-10T04:50:48;74442.31;;;-145.90;43.75
57562;BME280;43397;51.530;5.974;2023-05-10T04:53:15;74341.03;;;-145.90;42.03
57562;BME280;43397;51.530;5.974;2023-05-10T04:55:41;74391.66;;;-145.90;43.07
57562;BME280;43397;51.530;5.974;2023-05-10T04:58:06;74430.16;;;-145.90;43.45
57562;BME280;43397;51.530;5.974;2023-05-10T05:00:33;74330.88;;;-145.90;42.12
57562;BME280;43397;51.530;5.974;2023-05-10T05:02:59;74413.97;;;-145.90;43.12
57562;BME280;43397;51.530;5.974;2023-05-10T05:05:24;74397.75;;;-145.90;43.00
57562;BME280;43397;51.530;5.974;2023-05-10T05:07:50;74409.91;;;-145.90;43.26
57562;BME280;43397;51.530;5.974;2023-05-10T05:10:17;74460.56;;;-145.90;44.32
57562;BME280;43397;51.530;5.974;2023-05-10T05:12:43;74480.81;;;-145.90;44.62
57562;BME280;43397;51.530;5.974;2023-05-10T05:15:09;74507.16;;;-145.90;44.87
57562;BME280;43397;51.530;5.974;2023-05-10T05:17:35;74555.78;;;-145.90;46.06
57562;BME280;43397;51.530;5.974;2023-05-10T05:20:01;74484.88;;;-145.90;44.49
57562;BME280;43397;51.530;5.974;2023-05-10T05:22:26;74397.75;;;-145.90;43.43
57562;BME280;43397;51.530;5.974;2023-05-10T05:24:52;74405.84;;;-145.90;44.09
57562;BME280;43397;51.530;5.974;2023-05-10T05:27:19;74369.38;;;-145.90;43.03
57562;BME280;43397;51.530;5.974;2023-05-10T05:29:45;74387.63;;;-145.90;42.96
57562;BME280;43397;51.530;5.974;2023-05-10T05:32:11;74424.09;;;-145.90;43.95
57562;BME280;43397;51.530;5.974;2023-05-10T05:34:36;74497.03;;;-145.90;44.74
57562;BME280;43397;51.530;5.974;2023-05-10T05:37:02;74330.88;;;-145.90;42.73
57562;BME280;43397;51.530;5.974;2023-05-10T05:39:27;74312.66;;;-145.90;41.95
57562;BME280;43397;51.530;5.974;2023-05-10T05:41:53;74328.84;;;-145.90;42.24
57562;BME280;43397;51.530;5.974;2023-05-10T05:44:20;74278.22;;;-145.90;41.32
57562;BME280;43397;51.530;5.974;2023-05-10T05:46:46;74334.94;;;-145.90;42.28
57562;BME280;43397;51.530;5.974;2023-05-10T05:49:12;74357.22;;;-145.90;42.33
57562;BME280;43397;51.530;5.974;2023-05-10T05:51:37;74371.41;;;-145.90;42.88
57562;BME280;43397;51.530;5.974;2023-05-10T05:54:03;74478.78;;;-145.90;44.32
57562;BME280;43397;51.530;5.974;2023-05-10T05:56:29;74555.78;;;-145.90;45.20
57562;BME280;43397;51.530;5.974;2023-05-10T05:58:54;74407.88;;;-145.90;42.95
57562;BME280;43397;51.530;5.974;2023-05-10T06:01:21;74452.44;;;-145.90;43.13
57562;BME280;43397;51.530;5.974;2023-05-10T06:03:47;74436.25;;;-145.90;42.52
57562;BME280;43397;51.530;5.974;2023-05-10T06:06:13;74418.00;;;-145.90;42.52
57562;BME280;43397;51.530;5.974;2023-05-10T06:08:38;74450.44;;;-145.90;42.85
57562;BME280;43397;51.530;5.974;2023-05-10T06:11:04;74444.34;;;-145.90;42.35
57562;BME280;43397;51.530;5.974;2023-05-10T06:13:30;74456.50;;;-145.90;42.41
57562;BME280;43397;51.530;5.974;2023-05-10T06:15:55;74511.22;;;-145.90;42.97
57562;BME280;43397;51.530;5.974;2023-05-10T06:18:22;74523.38;;;-145.90;43.26
57562;BME280;43397;51.530;5.974;2023-05-10T06:20:49;74430.16;;;-145.90;41.96
57562;BME280;43397;51.530;5.974;2023-05-10T06:23:14;74397.75;;;-145.90;41.60
57562;BME280;43397;51.530;5.974;2023-05-10T06:25:40;74357.22;;;-145.90;40.90
57562;BME280;43397;51.530;5.974;2023-05-10T06:28:06;74361.28;;;-145.90;41.29
57562;BME280;43397;51.530;5.974;2023-05-10T06:30:31;74361.28;;;-145.90;41.41
57562;BME280;43397;51.530;5.974;2023-05-10T06:32:57;74385.59;;;-145.90;41.74
57562;BME280;43397;51.530;5.974;2023-05-10T06:35:24;74355.19;;;-145.90;41.41
57562;BME280;43397;51.530;5.974;2023-05-10T06:37:50;74274.16;;;-145.90;40.86
57562;BME280;43397;51.530;5.974;2023-05-10T06:40:16;74361.28;;;-145.90;41.74
57562;BME280;43397;51.530;5.974;2023-05-10T06:42:42;74418.00;;;-145.90;42.33
57562;BME280;43397;51.530;5.974;2023-05-10T06:45:08;74326.84;;;-145.90;40.88
57562;BME280;43397;51.530;5.974;2023-05-10T06:47:34;74316.69;;;-145.90;41.12
57562;BME280;43397;51.530;5.974;2023-05-10T06:50:00;74282.25;;;-145.90;40.55
57562;BME280;43397;51.530;5.974;2023-05-10T06:52:27;74288.34;;;-145.90;39.82
57562;BME280;43397;51.530;5.974;2023-05-10T06:54:52;74249.84;;;-145.90;39.61
57562;BME280;43397;51.530;5.974;2023-05-10T06:57:18;74300.50;;;-145.90;40.15
57562;BME280;43397;51.530;5.974;2023-05-10T06:59:44;74349.13;;;-145.90;40.49
57562;BME280;43397;51.530;5.974;2023-05-10T07:02:09;74259.97;;;-145.90;39.93
57562;BME280;43397;51.530;5.974;2023-05-10T07:04:35;74328.84;;;-145.90;40.14
57562;BME280;43397;51.530;5.974;2023-05-10T07:07:01;74403.81;;;-145.90;41.27
57562;BME280;43397;51.530;5.974;2023-05-10T07:09:28;74369.38;;;-145.90;41.07
57562;BME280;43397;51.530;5.974;2023-05-10T07:11:53;74466.63;;;-145.90;42.26
57562;BME280;43397;51.530;5.974;2023-05-10T07:14:19;74387.63;;;-145.90;41.01
57562;BME280;43397;51.530;5.974;2023-05-10T07:16:45;74322.78;;;-145.90;39.71
57562;BME280;43397;51.530;5.974;2023-05-10T07:19:10;74314.69;;;-145.90;40.01
57562;BME280;43397;51.530;5.974;2023-05-10T07:21:36;74298.47;;;-145.90;38.91
57562;BME280;43397;51.530;5.974;2023-05-10T07:24:02;74243.78;;;-145.90;38.59
57562;BME280;43397;51.530;5.974;2023-05-10T07:26:29;74154.63;;;-145.90;36.76
57562;BME280;43397;51.530;5.974;2023-05-10T07:28:54;74243.78;;;-145.90;38.53
57562;BME280;43397;51.530;5.974;2023-05-10T07:31:20;74124.25;;;-145.90;37.16
57562;BME280;43397;51.530;5.974;2023-05-10T07:33:45;74057.38;;;-145.90;36.20
57562;BME280;43397;51.530;5.974;2023-05-10T07:36:11;74053.34;;;-145.90;36.89
57562;BME280;43397;51.530;5.974;2023-05-10T07:38:37;74298.47;;;-145.90;39.13
57562;BME280;43397;51.530;5.974;2023-05-10T07:41:02;74274.16;;;-145.90;39.26
57562;BME280;43397;51.530;5.974;2023-05-10T07:43:29;74235.66;;;-145.90;39.05
57562;BME280;43397;51.530;5.974;2023-05-10T07:45:55;74292.38;;;-145.90;39.48
57562;BME280;43397;51.530;5.974;2023-05-10T07:48:21;74288.34;;;-145.90;39.29
57562;BME280;43397;51.530;5.974;2023-05-10T07:50:46;74136.41;;;-145.90;37.44
57562;BME280;43397;51.530;5.974;2023-05-10T07:53:12;74120.19;;;-145.90;37.10
57562;BME280;43397;51.530;5.974;2023-05-10T07:55:38;74016.88;;;-145.90;36.06
57562;BME280;43397;51.530;5.974;2023-05-10T07:58:03;74045.22;;;-145.90;35.10
57562;BME280;43397;51.530;5.974;2023-05-10T08:00:30;74334.94;;;-145.90;38.50
57562;BME280;43397;51.530;5.974;2023-05-10T08:02:56;74006.75;;;-145.90;35.94
57562;BME280;43397;51.530;5.974;2023-05-10T08:05:22;74363.31;;;-145.90;39.87
57562;BME280;43397;51.530;5.974;2023-05-10T08:07:47;74359.25;;;-145.90;40.90
57562;BME280;43397;51.530;5.974;2023-05-10T08:10:13;74399.78;;;-145.90;40.92
57562;BME280;43397;51.530;5.974;2023-05-10T08:12:39;74334.94;;;-145.90;40.04
57562;BME280;43397;51.530;5.974;2023-05-10T08:15:06;74347.09;;;-145.90;40.27
57562;BME280;43397;51.530;5.974;2023-05-10T08:17:33;74243.78;;;-145.90;38.99
57562;BME280;43397;51.530;5.974;2023-05-10T08:19:58;74083.72;;;-145.90;36.70
57562;BME280;43397;51.530;5.974;2023-05-10T08:22:24;74018.88;;;-145.90;36.17
57562;BME280;43397;51.530;5.974;2023-05-10T08:24:50;73964.19;;;-145.90;35.49
57562;BME280;43397;51.530;5.974;2023-05-10T08:27:15;74039.16;;;-145.90;35.82
57562;BME280;43397;51.530;5.974;2023-05-10T08:29:41;74207.31;;;-145.90;37.58
57562;BME280;43397;51.530;5.974;2023-05-10T08:32:07;74106.00;;;-145.90;36.91
57562;BME280;43397;51.530;5.974;2023-05-10T08:34:34;74215.41;;;-145.90;37.87
57562;BME280;43397;51.530;5.974;2023-05-10T08:36:59;74089.78;;;-145.90;36.75
57562;BME280;43397;51.530;5.974;2023-05-10T08:39:25;74134.38;;;-145.90;36.50
57562;BME280;43397;51.530;5.974;2023-05-10T08:41:51;74112.09;;;-145.90;36.80
57562;BME280;43397;51.530;5.974;2023-05-10T08:44:20;74257.94;;;-145.90;37.46
57562;BME280;43397;51.530;5.974;2023-05-10T08:46:46;74130.31;;;-145.90;37.02
57562;BME280;43397;51.530;5.974;2023-05-10T08:49:13;74195.16;;;-145.90;37.09
57562;BME280;43397;51.530;5.974;2023-05-10T08:51:49;74290.38;;;-145.90;39.03
57562;BME280;43397;51.530;5.974;2023-05-10T08:54:15;74359.25;;;-145.90;39.76
57562;BME280;43397;51.530;5.974;2023-05-10T08:56:41;74377.50;;;-145.90;39.97
57562;BME280;43397;51.530;5.974;2023-05-10T08:59:07;74367.34;;;-145.90;40.09
57562;BME280;43397;51.530;5.974;2023-05-10T09:01:35;74458.53;;;-145.90;41.64
57562;BME280;43397;51.530;5.974;2023-05-10T09:04:02;74397.75;;;-145.90;41.04
57562;BME280;43397;51.530;5.974;2023-05-10T09:06:27;74470.69;;;-145.90;42.05
57562;BME280;43397;51.530;5.974;2023-05-10T09:08:55;74328.84;;;-145.90;40.22
57562;BME280;43397;51.530;5.974;2023-05-10T09:11:21;74432.19;;;-145.90;40.68
57562;BME280;43397;51.530;5.974;2023-05-10T09:13:48;74478.78;;;-145.90;41.77
57562;BME280;43397;51.530;5.974;2023-05-10T09:16:13;74440.28;;;-145.90;41.07
57562;BME280;43397;51.530;5.974;2023-05-10T09:18:39;74561.84;;;-145.90;42.37
57562;BME280;43397;51.530;5.974;2023-05-10T09:21:04;74484.88;;;-145.90;41.75
57562;BME280;43397;51.530;5.974;2023-05-10T09:23:30;74517.28;;;-145.90;42.34
57562;BME280;43397;51.530;5.974;2023-05-10T09:26:03;74557.81;;;-145.90;42.72
57562;BME280;43397;51.530;5.974;2023-05-10T09:28:31;74497.03;;;-145.90;41.80
57562;BME280;43397;51.530;5.974;2023-05-10T09:30:57;74458.53;;;-145.90;41.15
57562;BME280;43397;51.530;5.974;2023-05-10T09:33:23;74452.44;;;-145.90;41.20
57562;BME280;43397;51.530;5.974;2023-05-10T09:35:51;74569.97;;;-145.90;42.46
57562;BME280;43397;51.530;5.974;2023-05-10T09:38:17;74521.34;;;-145.90;41.45
57562;BME280;43397;51.530;5.974;2023-05-10T09:40:51;74450.44;;;-145.90;40.63
57562;BME280;43397;51.530;5.974;2023-05-10T09:43:20;74446.38;;;-145.90;40.36
57562;BME280;43397;51.530;5.974;2023-05-10T09:45:48;74497.03;;;-145.90;41.30
57562;BME280;43397;51.530;5.974;2023-05-10T09:48:14;74413.97;;;-145.90;40.67
57562;BME280;43397;51.530;5.974;2023-05-10T09:50:39;74523.38;;;-145.90;40.90
57562;BME280;43397;51.530;5.974;2023-05-10T09:53:05;74444.34;;;-145.90;40.46
57562;BME280;43397;51.530;5.974;2023-05-10T09:55:39;74501.06;;;-145.90;40.36
57562;BME280;43397;51.530;5.974;2023-05-10T09:58:05;74462.59;;;-145.90;40.67
57562;BME280;43397;51.530;5.974;2023-05-10T10:00:36;74434.22;;;-145.90;40.36
57562;BME280;43397;51.530;5.974;2023-05-10T10:03:02;74470.69;;;-145.90;39.83
57562;BME280;43397;51.530;5.974;2023-05-10T10:05:29;74525.38;;;-145.90;40.54
57562;BME280;43397;51.530;5.974;2023-05-10T10:07:55;74507.16;;;-145.90;40.63
57562;BME280;43397;51.530;5.974;2023-05-10T10:10:22;74503.09;;;-145.90;40.56
57562;BME280;43397;51.530;5.974;2023-05-10T10:12:48;74440.28;;;-145.90;39.92
57562;BME280;43397;51.530;5.974;2023-05-10T10:15:14;74415.97;;;-145.90;39.66
57562;BME280;43397;51.530;5.974;2023-05-10T10:17:43;74509.19;;;-145.90;40.49
57562;BME280;43397;51.530;5.974;2023-05-10T10:20:09;74462.59;;;-145.90;39.54
57562;BME280;43397;51.530;5.974;2023-05-10T10:22:36;74432.19;;;-145.90;39.26
57562;BME280;43397;51.530;5.974;2023-05-10T10:25:02;74272.13;;;-145.90;38.05
57562;BME280;43397;51.530;5.974;2023-05-10T10:27:37;74474.72;;;-145.90;39.89
57562;BME280;43397;51.530;5.974;2023-05-10T10:30:13;74422.06;;;-145.90;39.07
57562;BME280;43397;51.530;5.974;2023-05-10T10:33:06;74387.63;;;-145.90;38.57
57562;BME280;43397;51.530;5.974;2023-05-10T10:35:36;74318.72;;;-145.90;38.42
57562;BME280;43397;51.530;5.974;2023-05-10T10:38:02;74440.28;;;-145.90;37.98
57562;BME280;43397;51.530;5.974;2023-05-10T10:40:29;74245.78;;;-145.90;37.13
57562;BME280;43397;51.530;5.974;2023-05-10T10:42:56;74140.44;;;-145.90;36.93
57562;BME280;43397;51.530;5.974;2023-05-10T10:45:23;74148.53;;;-145.90;36.77
57562;BME280;43397;51.530;5.974;2023-05-10T10:47:56;74207.31;;;-145.90;36.37
57562;BME280;43397;51.530;5.974;2023-05-10T10:50:43;73994.59;;;-145.90;34.61
57562;BME280;43397;51.530;5.974;2023-05-10T10:53:10;73992.56;;;-145.90;35.88
57562;BME280;43397;51.530;5.974;2023-05-10T10:55:45;73958.13;;;-145.90;34.80
57562;BME280;43397;51.530;5.974;2023-05-10T10:58:28;73964.19;;;-145.90;35.88
57562;BME280;43397;51.530;5.974;2023-05-10T11:01:10;73844.66;;;-145.90;34.02
57562;BME280;43397;51.530;5.974;2023-05-10T11:03:37;73729.19;;;-145.90;34.04
57562;BME280;43397;51.530;5.974;2023-05-10T11:06:03;73733.25;;;-145.90;33.69
57562;BME280;43397;51.530;5.974;2023-05-10T11:08:30;73905.44;;;-145.90;32.98
57562;BME280;43397;51.530;5.974;2023-05-10T11:11:04;73945.97;;;-145.90;34.67
57562;BME280;43397;51.530;5.974;2023-05-10T11:13:31;73921.66;;;-145.90;34.33
57562;BME280;43397;51.530;5.974;2023-05-10T11:15:58;74065.47;;;-145.90;34.21
57562;BME280;43397;51.530;5.974;2023-05-10T11:18:26;74024.97;;;-145.90;35.90
57562;BME280;43397;51.530;5.974;2023-05-10T11:20:56;74067.50;;;-145.90;35.60
57562;BME280;43397;51.530;5.974;2023-05-10T11:23:22;74166.78;;;-145.90;35.93
57562;BME280;43397;51.530;5.974;2023-05-10T11:25:48;74282.25;;;-145.90;37.07
57562;BME280;43397;51.530;5.974;2023-05-10T11:28:16;74255.94;;;-145.90;36.92
57562;BME280;43397;51.530;5.974;2023-05-10T11:30:44;74172.84;;;-145.90;36.15
57562;BME280;43397;51.530;5.974;2023-05-10T11:33:15;74106.00;;;-145.90;35.82
57562;BME280;43397;51.530;5.974;2023-05-10T11:35:41;74245.78;;;-145.90;36.89
57562;BME280;43397;51.530;5.974;2023-05-10T11:38:08;74221.47;;;-145.90;37.57
57562;BME280;43397;51.530;5.974;2023-05-10T11:40:34;74174.88;;;-145.90;36.57
57562;BME280;43397;51.530;5.974;2023-05-10T11:43:00;74174.88;;;-145.90;36.56
57562;BME280;43397;51.530;5.974;2023-05-10T11:45:26;74288.34;;;-145.90;36.48
57562;BME280;43397;51.530;5.974;2023-05-10T11:47:52;74136.41;;;-145.90;36.83
57562;BME280;43397;51.530;5.974;2023-05-10T11:50:18;74176.91;;;-145.90;36.55
57562;BME280;43397;51.530;5.974;2023-05-10T11:52:44;74089.78;;;-145.90;35.52
57562;BME280;43397;51.530;5.974;2023-05-10T11:55:11;74006.75;;;-145.90;35.19
57562;BME280;43397;51.530;5.974;2023-05-10T11:57:37;73976.34;;;-145.90;35.16
57562;BME280;43397;51.530;5.974;2023-05-10T12:00:04;73917.59;;;-145.90;34.50
57562;BME280;43397;51.530;5.974;2023-05-10T12:02:30;74018.88;;;-145.90;34.66
57562;BME280;43397;51.530;5.974;2023-05-10T12:04:56;73848.72;;;-145.90;33.68
57562;BME280;43397;51.530;5.974;2023-05-10T12:07:21;73719.06;;;-145.90;32.51
57562;BME280;43397;51.530;5.974;2023-05-10T12:10:03;73512.47;;;-145.90;31.05
57562;BME280;43397;51.530;5.974;2023-05-10T12:12:37;73249.13;;;-145.90;30.21
57562;BME280;43397;51.530;5.974;2023-05-10T12:15:03;73486.13;;;-145.90;30.14
57562;BME280;43397;51.530;5.974;2023-05-10T12:17:29;73806.19;;;-145.90;32.14
57562;BME280;43397;51.530;5.974;2023-05-10T12:19:58;73836.56;;;-145.90;32.30
57562;BME280;43397;51.530;5.974;2023-05-10T12:22:24;73929.75;;;-145.90;34.58
57562;BME280;43397;51.530;5.974;2023-05-10T12:24:50;73998.63;;;-145.90;34.12
57562;BME280;43397;51.530;5.974;2023-05-10T12:27:15;73982.44;;;-145.90;34.72
57562;BME280;43397;51.530;5.974;2023-05-10T12:29:43;74014.84;;;-145.90;33.90
57562;BME280;43397;51.530;5.974;2023-05-10T12:32:08;74027.00;;;-145.90;34.77
57562;BME280;43397;51.530;5.974;2023-05-10T12:34:35;74231.63;;;-145.90;35.11
57562;BME280;43397;51.530;5.974;2023-05-10T12:37:01;74278.22;;;-145.90;36.76
57562;BME280;43397;51.530;5.974;2023-05-10T12:39:38;74249.84;;;-145.90;43.01
57562;BME280;43397;51.530;5.974;2023-05-10T12:42:04;74257.94;;;-145.90;38.67